createdAt,value
2023-01-13T00:00:19.439Z,100162.03
2023-01-13T00:02:22.681Z,100158.78
2023-01-13T00:04:25.803Z,100159.66
2023-01-13T00:06:28.163Z,100153.59
2023-01-13T00:08:31.285Z,100150.13
2023-01-13T00:10:36.222Z,100162.91
2023-01-13T00:12:42.546Z,100138.13
2023-01-13T00:14:44.613Z,100151.66
2023-01-13T00:16:47.817Z,100145.66
2023-01-13T00:18:51.593Z,100156.03
2023-01-13T00:21:00.895Z,100149.19
2023-01-13T00:23:06.001Z,100152.59
2023-01-13T00:25:13.913Z,100156.19
2023-01-13T00:27:15.867Z,100157.72
2023-01-13T00:29:17.838Z,100157.66
2023-01-13T00:31:21.324Z,100156.19
2023-01-13T00:33:23.336Z,100156.25
2023-01-13T00:35:26.458Z,100151.97
2023-01-13T00:37:28.546Z,100143.25
2023-01-13T00:39:30.751Z,100144.03
2023-01-13T00:41:52.798Z,100145.94
2023-01-13T00:43:54.869Z,100142.84
2023-01-13T00:45:57.016Z,100140.97
2023-01-13T00:48:00.002Z,100144.91
2023-01-13T00:50:11.394Z,100143.81
2023-01-13T00:52:13.399Z,100143.06
2023-01-13T00:54:16.442Z,100142.53
2023-01-13T00:56:38.625Z,100132.63
2023-01-13T00:58:43.347Z,100138.44
2023-01-13T01:00:46.171Z,100137.75
2023-01-13T01:02:48.317Z,100129.47
2023-01-13T01:04:51.564Z,100136.94
2023-01-13T01:06:53.575Z,100133.50
2023-01-13T01:08:57.311Z,100132.03
2023-01-13T01:11:10.861Z,100128.47
2023-01-13T01:13:17.345Z,100119.09
2023-01-13T01:15:21.312Z,100125.03
2023-01-13T01:17:24.345Z,100124.06
2023-01-13T01:19:28.425Z,100117.22
2023-01-13T01:21:33.461Z,100114.06
2023-01-13T01:23:36.528Z,100110.59
2023-01-13T01:25:39.532Z,100107.13
2023-01-13T01:27:41.590Z,100108.72
2023-01-13T01:29:43.574Z,100103.44
2023-01-13T01:31:45.723Z,100099.13
2023-01-13T01:33:49.804Z,100102.47
2023-01-13T01:35:51.994Z,100097.34
2023-01-13T01:37:56.045Z,100084.59
2023-01-13T01:39:58.066Z,100090.38
2023-01-13T01:42:19.757Z,100094.88
2023-01-13T01:44:40.173Z,100086.28
2023-01-13T01:46:44.813Z,100080.97
2023-01-13T01:48:47.004Z,100082.72
2023-01-13T01:50:49.062Z,100073.28
2023-01-13T01:52:58.516Z,100076.16
2023-01-13T01:55:15.437Z,100068.50
2023-01-13T01:57:43.467Z,100067.72
2023-01-13T01:59:45.868Z,100061.88
2023-01-13T02:01:49.007Z,100065.34
2023-01-13T02:03:59.790Z,100061.94
2023-01-13T02:06:01.867Z,100055.97
2023-01-13T02:08:04.384Z,100059.31
2023-01-13T02:10:10.472Z,100058.69
2023-01-13T02:12:30.542Z,100056.00
2023-01-13T02:14:34.696Z,100057.69
2023-01-13T02:16:42.915Z,100059.31
2023-01-13T02:18:53.856Z,100057.53
2023-01-13T02:21:17.614Z,100053.03
2023-01-13T02:24:04.598Z,100053.00
2023-01-13T02:26:21.886Z,100051.88
2023-01-13T02:29:07.445Z,100048.50
2023-01-13T02:31:33.382Z,100039.34
2023-01-13T02:33:44.711Z,100040.25
2023-01-13T02:36:02.973Z,100031.63
2023-01-13T02:38:15.614Z,100029.91
2023-01-13T02:41:25.438Z,100029.13
2023-01-13T02:43:57.689Z,100035.25
2023-01-13T02:46:08.724Z,100040.34
2023-01-13T02:48:15.170Z,100032.72
2023-01-13T02:50:46.205Z,100029.59
2023-01-13T02:53:08.052Z,100029.59
2023-01-13T02:55:14.927Z,100032.94
2023-01-13T02:57:19.235Z,100027.06
2023-01-13T02:59:22.671Z,100028.81
2023-01-13T03:01:26.617Z,100032.31
2023-01-13T03:03:28.568Z,100032.31
2023-01-13T03:05:33.279Z,100034.00
2023-01-13T03:08:12.229Z,100030.63
2023-01-13T03:10:44.388Z,100025.22
2023-01-13T03:13:17.314Z,100019.41
2023-01-13T03:15:40.775Z,100015.94
2023-01-13T03:17:50.041Z,100008.28
2023-01-13T03:20:14.425Z,100008.28
2023-01-13T03:22:39.497Z,100008.41
2023-01-13T03:24:56.731Z,100011.56
2023-01-13T03:27:24.018Z,100025.44
2023-01-13T03:29:32.776Z,100017.84
2023-01-13T03:31:43.487Z,100023.72
2023-01-13T03:33:54.475Z,100017.63
2023-01-13T03:36:02.354Z,100019.06
2023-01-13T03:38:13.604Z,100017.06
2023-01-13T03:40:22.259Z,100022.09
2023-01-13T03:42:28.007Z,100016.09
2023-01-13T03:44:34.705Z,100017.69
2023-01-13T03:46:47.616Z,100005.72
2023-01-13T03:48:54.016Z,100017.38
2023-01-13T03:51:00.230Z,100009.88
2023-01-13T03:53:12.780Z,99998.59
2023-01-13T03:55:23.302Z,100008.81
2023-01-13T03:57:31.805Z,100005.13
2023-01-13T03:59:41.756Z,100007.78
2023-01-13T04:02:00.324Z,100002.28
2023-01-13T04:04:03.396Z,100002.28
2023-01-13T04:06:21.128Z,100002.28
2023-01-13T04:08:29.484Z,100000.63
2023-01-13T04:10:50.345Z,100004.78
2023-01-13T04:13:08.039Z,99999.75
2023-01-13T04:15:10.458Z,100004.84
2023-01-13T04:17:13.722Z,100001.41
2023-01-13T04:19:17.665Z,99997.97
2023-01-13T04:21:19.616Z,100000.44
2023-01-13T04:23:23.227Z,100000.44
2023-01-13T04:25:26.165Z,99998.03
2023-01-13T04:27:28.179Z,99989.41
2023-01-13T04:29:30.167Z,99995.38
2023-01-13T04:31:32.051Z,99992.78
2023-01-13T04:33:34.511Z,99988.59
2023-01-13T04:35:37.396Z,99987.72
2023-01-13T04:37:39.384Z,99990.09
2023-01-13T04:39:41.305Z,99988.41
2023-01-13T04:41:59.499Z,99983.38
2023-01-13T04:44:02.374Z,99984.16
2023-01-13T04:46:04.338Z,99991.03
2023-01-13T04:48:06.581Z,99995.22
2023-01-13T04:50:09.735Z,99990.94
2023-01-13T04:52:13.608Z,99981.56
2023-01-13T04:54:16.409Z,99986.66
2023-01-13T04:56:18.306Z,99986.66
2023-01-13T04:58:20.125Z,99980.69
2023-01-13T05:00:23.285Z,99988.41
2023-01-13T05:02:25.216Z,99990.78
2023-01-13T05:04:27.141Z,99989.97
2023-01-13T05:06:29.851Z,99991.78
2023-01-13T05:08:31.764Z,99984.13
2023-01-13T05:10:33.631Z,99991.78
2023-01-13T05:12:53.944Z,99985.00
2023-01-13T05:15:14.237Z,99993.28
2023-01-13T05:17:25.129Z,99986.44
2023-01-13T05:19:35.905Z,99985.53
2023-01-13T05:21:56.410Z,99989.72
2023-01-13T05:24:16.699Z,99982.66
2023-01-13T05:26:19.665Z,99986.06
2023-01-13T05:28:23.577Z,99988.63
2023-01-13T05:30:31.397Z,99984.56
2023-01-13T05:32:33.459Z,99981.19
2023-01-13T05:34:35.461Z,99985.38
2023-01-13T05:36:37.362Z,99976.25
2023-01-13T05:38:39.450Z,99982.22
2023-01-13T05:41:00.649Z,99983.13
2023-01-13T05:43:20.181Z,99989.22
2023-01-13T05:45:22.413Z,99992.56
2023-01-13T05:47:25.301Z,99994.34
2023-01-13T05:49:29.227Z,99990.09
2023-01-13T05:51:31.649Z,99995.88
2023-01-13T05:53:36.084Z,99995.13
2023-01-13T05:55:42.395Z,99995.22
2023-01-13T05:57:44.889Z,99993.41
2023-01-13T05:59:46.824Z,99994.94
2023-01-13T06:01:48.771Z,100001.69
2023-01-13T06:03:50.683Z,100000.03
2023-01-13T06:05:58.647Z,100001.00
2023-01-13T06:08:04.722Z,100006.94
2023-01-13T06:10:07.202Z,100011.09
2023-01-13T06:12:12.452Z,100013.81
2023-01-13T06:14:14.525Z,100008.69
2023-01-13T06:16:16.461Z,100007.88
2023-01-13T06:18:18.492Z,100009.56
2023-01-13T06:20:26.429Z,100012.88
2023-01-13T06:22:35.378Z,100005.31
2023-01-13T06:24:38.319Z,100018.22
2023-01-13T06:26:41.745Z,100003.78
2023-01-13T06:28:43.589Z,100005.31
2023-01-13T06:30:53.196Z,100012.06
2023-01-13T06:32:58.614Z,100011.28
2023-01-13T06:35:05.697Z,100012.06
2023-01-13T06:37:07.869Z,100011.34
2023-01-13T06:39:13.688Z,100016.38
2023-01-13T06:41:40.132Z,100010.34
2023-01-13T06:43:42.256Z,100013.81
2023-01-13T06:45:51.310Z,100016.34
2023-01-13T06:47:54.881Z,100013.06
2023-01-13T06:49:56.934Z,100013.22
2023-01-13T06:51:58.926Z,100010.50
2023-01-13T06:54:03.062Z,100014.97
2023-01-13T06:56:05.157Z,100015.84
2023-01-13T06:58:07.797Z,100017.47
2023-01-13T07:00:11.772Z,100023.72
2023-01-13T07:02:15.806Z,100018.63
2023-01-13T07:04:19.072Z,100015.31
2023-01-13T07:06:20.975Z,100011.81
2023-01-13T07:08:24.280Z,100011.03
2023-01-13T07:10:33.213Z,100011.09
2023-01-13T07:12:59.158Z,100015.16
2023-01-13T07:15:21.228Z,100018.69
2023-01-13T07:17:25.575Z,100008.34
2023-01-13T07:19:27.513Z,99999.97
2023-01-13T07:21:31.475Z,100011.19
2023-01-13T07:23:42.038Z,100006.78
2023-01-13T07:25:44.471Z,100007.47
2023-01-13T07:27:47.637Z,100010.19
2023-01-13T07:29:49.578Z,100016.97
2023-01-13T07:31:52.584Z,100016.00
2023-01-13T07:34:00.295Z,100011.91
2023-01-13T07:36:05.089Z,100012.75
2023-01-13T07:38:08.433Z,100017.13
2023-01-13T07:40:11.226Z,100015.44
2023-01-13T07:42:31.661Z,100019.84
2023-01-13T07:44:33.699Z,100014.97
2023-01-13T07:46:38.932Z,100021.94
2023-01-13T07:48:42.008Z,100022.94
2023-01-13T07:50:44.267Z,100018.84
2023-01-13T07:52:51.683Z,100022.47
2023-01-13T07:54:53.631Z,100018.22
2023-01-13T07:56:59.546Z,100019.91
2023-01-13T07:59:03.062Z,100013.16
2023-01-13T08:01:14.304Z,100024.31
2023-01-13T08:03:17.274Z,100019.28
2023-01-13T08:05:19.395Z,100013.19
2023-01-13T08:07:21.463Z,100017.44
2023-01-13T08:09:23.416Z,100023.41
2023-01-13T08:11:27.416Z,100025.34
2023-01-13T08:13:29.731Z,100025.56
2023-01-13T08:15:32.891Z,100024.59
2023-01-13T08:17:36.813Z,100021.34
2023-01-13T08:19:40.688Z,100016.44
2023-01-13T08:22:00.970Z,100023.25
2023-01-13T08:24:07.277Z,100020.75
2023-01-13T08:26:12.225Z,100026.72
2023-01-13T08:28:24.341Z,100025.94
2023-01-13T08:30:27.972Z,100020.06
2023-01-13T08:32:30.883Z,100017.63
2023-01-13T08:34:32.873Z,100021.19
2023-01-13T08:36:34.942Z,100016.00
2023-01-13T08:38:38.683Z,100020.53
2023-01-13T08:40:41.724Z,100024.00
2023-01-13T08:42:49.557Z,100018.13
2023-01-13T08:44:55.581Z,100017.25
2023-01-13T08:46:58.022Z,100020.81
2023-01-13T08:49:00.997Z,100023.50
2023-01-13T08:51:06.146Z,100027.94
2023-01-13T08:53:08.060Z,100035.56
2023-01-13T08:55:25.087Z,100035.50
2023-01-13T08:57:33.037Z,100037.34
2023-01-13T08:59:39.485Z,100034.78
2023-01-13T09:01:41.743Z,100033.94
2023-01-13T09:03:44.750Z,100030.53
2023-01-13T09:05:46.710Z,100035.72
2023-01-13T09:07:48.685Z,100028.91
2023-01-13T09:09:51.500Z,100034.03
2023-01-13T09:12:13.297Z,100034.09
2023-01-13T09:14:19.798Z,100039.34
2023-01-13T09:16:21.842Z,100036.84
2023-01-13T09:18:24.115Z,100030.81
2023-01-13T09:20:27.226Z,100034.34
2023-01-13T09:22:31.403Z,100030.88
2023-01-13T09:24:33.436Z,100019.88
2023-01-13T09:26:35.508Z,100025.19
2023-01-13T09:28:43.665Z,100027.69
2023-01-13T09:30:45.692Z,100019.16
2023-01-13T09:32:47.619Z,100012.22
2023-01-13T09:35:02.717Z,100015.72
2023-01-13T09:37:07.355Z,100015.81
2023-01-13T09:39:10.252Z,100014.25
2023-01-13T09:41:46.666Z,100004.16
2023-01-13T09:43:59.506Z,100014.31
2023-01-13T09:46:49.389Z,100007.53
2023-01-13T09:48:59.100Z,100008.34
2023-01-13T09:51:46.062Z,100008.59
2023-01-13T09:54:00.844Z,100002.56
2023-01-13T09:56:02.878Z,100001.78
2023-01-13T09:58:14.438Z,100005.25
2023-01-13T10:00:21.744Z,100000.97
2023-01-13T10:02:44.469Z,99998.47
2023-01-13T10:05:16.900Z,99990.03
2023-01-13T10:07:21.691Z,100000.44
2023-01-13T10:09:34.667Z,100001.22
2023-01-13T10:11:59.552Z,99996.19
2023-01-13T10:14:16.960Z,99994.66
2023-01-13T10:16:50.391Z,99995.66
2023-01-13T10:19:16.856Z,99994.84
2023-01-13T10:21:54.640Z,99988.94
2023-01-13T10:24:08.088Z,99994.13
2023-01-13T10:28:55.043Z,99984.06
2023-01-13T10:31:00.725Z,99984.16
2023-01-13T10:33:20.969Z,99970.47
2023-01-13T10:35:56.792Z,99981.63
2023-01-13T10:37:58.751Z,99979.97
2023-01-13T10:40:08.052Z,99976.69
2023-01-13T10:42:20.077Z,99975.03
2023-01-13T10:44:24.069Z,99975.03
2023-01-13T10:46:26.151Z,99976.03
2023-01-13T10:48:58.369Z,99968.38
2023-01-13T10:51:26.377Z,99973.50
2023-01-13T10:53:29.165Z,99966.78
2023-01-13T10:55:37.194Z,99965.91
2023-01-13T10:57:39.197Z,99971.91
2023-01-13T10:59:41.209Z,99971.09
2023-01-13T11:02:25.917Z,99963.47
2023-01-13T11:04:51.678Z,99964.50
2023-01-13T11:06:55.530Z,99965.31
2023-01-13T11:08:58.823Z,99963.69
2023-01-13T11:11:01.801Z,99961.13
2023-01-13T11:13:10.057Z,99957.84
2023-01-13T11:15:18.870Z,99958.63
2023-01-13T11:17:42.305Z,99961.25
2023-01-13T11:19:52.548Z,99969.91
2023-01-13T11:22:12.693Z,99962.28
2023-01-13T11:24:27.856Z,99970.06
2023-01-13T11:26:47.510Z,99954.63
2023-01-13T11:29:13.428Z,99954.66
2023-01-13T11:31:19.740Z,99958.97
2023-01-13T11:33:54.347Z,99955.59
2023-01-13T11:36:07.611Z,99953.06
2023-01-13T11:38:34.179Z,99950.53
2023-01-13T11:41:02.692Z,99955.81
2023-01-13T11:43:19.470Z,99950.59
2023-01-13T11:45:33.578Z,99957.41
2023-01-13T11:47:37.074Z,99944.50
2023-01-13T11:49:40.858Z,99937.72
2023-01-13T11:52:01.279Z,99937.03
2023-01-13T11:54:28.762Z,99936.88
2023-01-13T11:56:41.059Z,99934.41
2023-01-13T11:58:59.808Z,99936.13
2023-01-13T12:01:29.477Z,99930.09
2023-01-13T12:04:01.315Z,99930.19
2023-01-13T12:06:09.020Z,99934.41
2023-01-13T12:08:37.213Z,99934.41
2023-01-13T12:11:00.521Z,99934.47
2023-01-13T12:13:15.560Z,99938.72
2023-01-13T12:15:45.695Z,99930.25
2023-01-13T12:18:27.933Z,99920.97
2023-01-13T12:20:55.142Z,99935.44
2023-01-13T12:22:59.806Z,99928.69
2023-01-13T12:25:17.431Z,99933.72
2023-01-13T12:27:32.527Z,99934.72
2023-01-13T12:29:44.718Z,99927.88
2023-01-13T12:31:54.446Z,99926.28
2023-01-13T12:34:09.490Z,99928.94
2023-01-13T12:36:19.493Z,99923.91
2023-01-13T12:38:49.804Z,99928.28
2023-01-13T12:41:33.850Z,99925.00
2023-01-13T12:43:57.028Z,99931.03
2023-01-13T12:46:23.419Z,99923.34
2023-01-13T12:49:04.875Z,99932.78
2023-01-13T12:51:25.635Z,99926.72
2023-01-13T12:53:34.178Z,99925.03
2023-01-13T12:55:36.776Z,99931.88
2023-01-13T12:58:00.921Z,99925.94
2023-01-13T13:00:03.798Z,99926.63
2023-01-13T13:02:11.734Z,99936.88
2023-01-13T13:04:42.040Z,99931.03
2023-01-13T13:07:19.147Z,99931.84
2023-01-13T13:09:28.190Z,99935.25
2023-01-13T13:11:56.219Z,99933.59
2023-01-13T13:13:59.341Z,99940.38
2023-01-13T13:16:27.803Z,99942.03
2023-01-13T13:18:30.620Z,99937.00
2023-01-13T13:21:04.734Z,99940.34
2023-01-13T13:23:48.248Z,99943.78
2023-01-13T13:26:20.517Z,99942.94
2023-01-13T13:28:24.555Z,99945.47
2023-01-13T13:30:37.725Z,99942.09
2023-01-13T13:33:15.825Z,99943.84
2023-01-13T13:35:55.692Z,99937.78
2023-01-13T13:38:27.626Z,99957.31
2023-01-13T13:40:51.105Z,99943.59
2023-01-13T13:43:18.774Z,99943.59
2023-01-13T13:45:42.204Z,99946.94
2023-01-13T13:47:44.289Z,99944.56
2023-01-13T13:49:56.239Z,99947.94
2023-01-13T13:52:11.202Z,99958.19
2023-01-13T13:54:16.551Z,99953.03
2023-01-13T13:56:27.904Z,99956.47
2023-01-13T13:58:36.748Z,99963.19
2023-01-13T14:00:48.667Z,99959.75
2023-01-13T14:02:56.521Z,99967.28
2023-01-13T14:05:17.016Z,99973.03
2023-01-13T14:07:21.843Z,99963.41
2023-01-13T14:09:25.836Z,99960.09
2023-01-13T14:11:33.460Z,99961.91
2023-01-13T14:13:35.397Z,99962.59
2023-01-13T14:15:40.060Z,99965.03
2023-01-13T14:17:42.131Z,99959.03
2023-01-13T14:19:47.929Z,99960.56
2023-01-13T14:21:49.825Z,99959.81
2023-01-13T14:23:56.045Z,99954.69
2023-01-13T14:26:09.681Z,99958.22
2023-01-13T14:28:26.896Z,99953.09
2023-01-13T14:30:29.282Z,99958.44
2023-01-13T14:32:35.572Z,99965.22
2023-01-13T14:34:39.309Z,99961.91
2023-01-13T14:36:42.007Z,99964.47
2023-01-13T14:39:06.922Z,99967.78
2023-01-13T14:41:16.292Z,99967.56
2023-01-13T14:43:23.214Z,99959.06
2023-01-13T14:45:25.461Z,99970.06
2023-01-13T14:47:34.081Z,99961.47
2023-01-13T14:49:40.616Z,99965.09
2023-01-13T14:51:42.755Z,99973.78
2023-01-13T14:53:47.840Z,99961.69
2023-01-13T14:55:50.831Z,99961.84
2023-01-13T14:57:53.191Z,99960.09
2023-01-13T15:00:13.708Z,99969.63
2023-01-13T15:02:31.356Z,99960.19
2023-01-13T15:04:37.669Z,99967.00
2023-01-13T15:06:39.735Z,99962.78
2023-01-13T15:08:41.779Z,99967.16
2023-01-13T15:11:08.649Z,99964.50
2023-01-13T15:13:53.370Z,99962.75
2023-01-13T15:16:00.573Z,99956.81
2023-01-13T15:18:12.099Z,99958.63
2023-01-13T15:20:14.993Z,99957.88
2023-01-13T15:22:17.058Z,99946.72
2023-01-13T15:24:18.969Z,99951.03
2023-01-13T15:26:30.029Z,99945.97
2023-01-13T15:28:32.487Z,99939.13
2023-01-13T15:30:34.603Z,99941.75
2023-01-13T15:32:43.567Z,99936.66
2023-01-13T15:34:49.823Z,99942.69
2023-01-13T15:36:53.889Z,99944.47
2023-01-13T15:38:58.185Z,99946.94
2023-01-13T15:41:00.774Z,99950.31
2023-01-13T15:43:22.195Z,99946.97
2023-01-13T15:45:42.971Z,99950.44
2023-01-13T15:47:48.537Z,99952.09
2023-01-13T15:49:54.806Z,99952.09
2023-01-13T15:51:58.780Z,99954.72
2023-01-13T15:54:02.745Z,99953.91
2023-01-13T15:56:12.134Z,99958.19
2023-01-13T15:58:28.468Z,99957.44
2023-01-13T16:00:31.639Z,99949.91
2023-01-13T16:02:34.856Z,99958.47
2023-01-13T16:04:36.942Z,99953.34
2023-01-13T16:06:39.884Z,99945.59
2023-01-13T16:08:42.930Z,99957.59
2023-01-13T16:10:46.256Z,99954.19
2023-01-13T16:12:48.348Z,99953.34
2023-01-13T16:14:50.466Z,99951.63
2023-01-13T16:16:52.613Z,99953.34
2023-01-13T16:18:57.026Z,99949.06
2023-01-13T16:21:00.026Z,99952.34
2023-01-13T16:23:02.117Z,99957.69
2023-01-13T16:25:04.315Z,99962.88
2023-01-13T16:27:26.724Z,99973.16
2023-01-13T16:29:29.115Z,99966.38
2023-01-13T16:31:33.466Z,99976.56
2023-01-13T16:33:37.641Z,99972.28
2023-01-13T16:36:09.701Z,99972.28
2023-01-13T16:38:19.431Z,99973.09
2023-01-13T16:40:36.703Z,99969.72
2023-01-13T16:42:38.735Z,99967.19
2023-01-13T16:44:41.209Z,99971.56
2023-01-13T16:46:45.727Z,99966.19
2023-01-13T16:48:48.909Z,99969.72
2023-01-13T16:50:51.200Z,99966.25
2023-01-13T16:52:53.164Z,99976.44
2023-01-13T16:54:55.173Z,99974.94
2023-01-13T16:56:58.146Z,99977.31
2023-01-13T16:59:14.572Z,99979.19
2023-01-13T17:01:37.538Z,99972.47
2023-01-13T17:03:41.635Z,99974.94
2023-01-13T17:05:49.553Z,99973.22
2023-01-13T17:07:52.662Z,99977.59
2023-01-13T17:09:54.785Z,99971.50
2023-01-13T17:11:57.239Z,99979.22
2023-01-13T17:13:59.394Z,99973.97
2023-01-13T17:16:05.682Z,99973.22
2023-01-13T17:18:07.697Z,99972.22
2023-01-13T17:20:14.983Z,99986.81
2023-01-13T17:22:17.052Z,99986.94
2023-01-13T17:24:19.120Z,99987.75
2023-01-13T17:26:37.509Z,99985.19
2023-01-13T17:28:39.501Z,99990.31
2023-01-13T17:30:44.476Z,99987.81
2023-01-13T17:32:46.595Z,99988.56
2023-01-13T17:34:50.301Z,99985.00
2023-01-13T17:36:52.467Z,99995.97
2023-01-13T17:38:56.392Z,99989.00
2023-01-13T17:41:05.376Z,99998.44
2023-01-13T17:43:07.630Z,99991.59
2023-01-13T17:45:12.270Z,100001.84
2023-01-13T17:47:14.957Z,100000.84
2023-01-13T17:49:22.098Z,99992.41
2023-01-13T17:51:25.661Z,100000.91
2023-01-13T17:53:31.928Z,100006.06
2023-01-13T17:55:35.013Z,99998.28
2023-01-13T17:57:36.997Z,100000.03
2023-01-13T17:59:41.775Z,100000.75
2023-01-13T18:01:44.358Z,100006.69
2023-01-13T18:03:46.586Z,100005.97
2023-01-13T18:05:48.599Z,100007.56
2023-01-13T18:07:52.177Z,100004.81
2023-01-13T18:09:55.398Z,99999.69
2023-01-13T18:11:58.096Z,100003.91
2023-01-13T18:14:03.215Z,99996.22
2023-01-13T18:16:12.765Z,100002.34
2023-01-13T18:18:15.099Z,100003.09
2023-01-13T18:20:40.536Z,100005.69
2023-01-13T18:23:01.869Z,100005.69
2023-01-13T18:25:23.038Z,100009.03
2023-01-13T18:27:30.799Z,100009.78
2023-01-13T18:29:35.613Z,100004.72
2023-01-13T18:31:37.714Z,100007.16
2023-01-13T18:33:39.918Z,100005.41
2023-01-13T18:35:48.519Z,100008.00
2023-01-13T18:37:52.637Z,100007.28
2023-01-13T18:39:54.811Z,100012.38
2023-01-13T18:42:15.852Z,100016.06
2023-01-13T18:44:18.254Z,100015.97
2023-01-13T18:46:20.585Z,100015.75
2023-01-13T18:48:24.309Z,100023.53
2023-01-13T18:50:27.274Z,100020.81
2023-01-13T18:52:29.808Z,100022.41
2023-01-13T18:54:32.058Z,100021.63
2023-01-13T18:56:36.591Z,100028.28
2023-01-13T18:58:52.753Z,100026.69
2023-01-13T19:01:02.372Z,100026.75
2023-01-13T19:05:09.633Z,100034.47
2023-01-13T19:07:13.301Z,100034.44
2023-01-13T19:09:20.530Z,100037.09
2023-01-13T19:11:24.424Z,100035.34
2023-01-13T19:13:28.667Z,100039.72
2023-01-13T19:15:30.853Z,100049.06
2023-01-13T19:17:35.482Z,100051.56
2023-01-13T19:19:46.790Z,100051.34
2023-01-13T19:21:49.303Z,100054.06
2023-01-13T19:23:54.626Z,100052.31
2023-01-13T19:26:07.024Z,100049.00
2023-01-13T19:28:09.440Z,100046.34
2023-01-13T19:30:14.214Z,100051.50
2023-01-13T19:32:18.198Z,100054.19
2023-01-13T19:34:20.860Z,100049.16
2023-01-13T19:36:23.836Z,100052.59
2023-01-13T19:38:27.622Z,100062.72
2023-01-13T19:40:30.642Z,100062.09
2023-01-13T19:42:54.036Z,100059.19
2023-01-13T19:45:14.415Z,100065.38
2023-01-13T19:47:18.327Z,100063.69
2023-01-13T19:49:20.885Z,100067.25
2023-01-13T19:51:29.381Z,100067.91
2023-01-13T19:53:32.593Z,100075.63
2023-01-13T19:55:35.516Z,100077.34
2023-01-13T19:57:39.518Z,100078.19
2023-01-13T19:59:42.549Z,100083.44
2023-01-13T20:01:46.259Z,100079.13
2023-01-13T20:03:51.137Z,100079.09
2023-01-13T20:05:55.348Z,100090.25
2023-01-13T20:07:57.967Z,100089.34
2023-01-13T20:10:07.317Z,100085.84
2023-01-13T20:12:15.430Z,100091.06
2023-01-13T20:14:17.819Z,100090.06
2023-01-13T20:16:22.266Z,100089.31
2023-01-13T20:18:25.074Z,100098.66
2023-01-13T20:20:30.830Z,100095.97
2023-01-13T20:22:38.108Z,100090.56
2023-01-13T20:24:55.184Z,100088.28
2023-01-13T20:26:58.015Z,100102.06
2023-01-13T20:29:41.315Z,100105.41
2023-01-13T20:31:51.458Z,100106.34
2023-01-13T20:34:29.205Z,100110.44
2023-01-13T20:37:00.648Z,100105.31
2023-01-13T20:39:10.969Z,100107.69
2023-01-13T20:41:37.886Z,100115.34
2023-01-13T20:43:49.845Z,100128.13
2023-01-13T20:45:51.859Z,100132.47
2023-01-13T20:48:06.935Z,100127.16
2023-01-13T20:50:20.962Z,100133.91
2023-01-13T20:52:42.944Z,100130.53
2023-01-13T20:54:51.749Z,100127.03
2023-01-13T20:57:41.665Z,100138.69
2023-01-13T21:00:19.510Z,100134.66
2023-01-13T21:02:30.522Z,100137.56
2023-01-13T21:04:33.917Z,100134.75
2023-01-13T21:06:38.930Z,100135.69
2023-01-13T21:09:13.055Z,100136.56
2023-01-13T21:11:21.489Z,100147.31
2023-01-13T21:13:55.220Z,100153.28
2023-01-13T21:16:00.494Z,100149.59
2023-01-13T21:18:29.371Z,100145.47
2023-01-13T21:21:13.258Z,100149.59
2023-01-13T21:23:28.324Z,100153.56
2023-01-13T21:25:41.295Z,100154.47
2023-01-13T21:28:12.513Z,100157.84
2023-01-13T21:30:27.872Z,100161.16
2023-01-13T21:32:38.002Z,100165.44
2023-01-13T21:37:21.260Z,100162.94
2023-01-13T21:39:41.161Z,100156.94
2023-01-13T21:42:08.596Z,100160.03
2023-01-13T21:44:51.716Z,100157.66
2023-01-13T21:47:33.855Z,100151.50
2023-01-13T21:49:47.928Z,100157.53
2023-01-13T21:52:09.578Z,100166.81
2023-01-13T21:54:31.650Z,100171.06
2023-01-13T21:56:38.722Z,100169.47
2023-01-13T21:58:55.396Z,100171.97
2023-01-13T22:01:19.280Z,100177.69
2023-01-13T22:03:26.356Z,100164.16
2023-01-13T22:05:32.509Z,100168.56
2023-01-13T22:07:39.136Z,100175.91
2023-01-13T22:09:54.451Z,100182.34
2023-01-13T22:12:08.323Z,100178.00
2023-01-13T22:14:16.329Z,100172.63
2023-01-13T22:16:27.219Z,100170.91
2023-01-13T22:18:29.261Z,100173.81
2023-01-13T22:20:49.400Z,100173.75
2023-01-13T22:22:53.439Z,100177.91
2023-01-13T22:24:56.522Z,100181.97
2023-01-13T22:27:08.516Z,100188.84
2023-01-13T22:29:10.523Z,100193.13
2023-01-13T22:31:18.620Z,100187.78
2023-01-13T22:33:34.802Z,100198.00
2023-01-13T22:35:38.660Z,100193.53
2023-01-13T22:37:43.584Z,100195.00
2023-01-13T22:39:51.731Z,100197.66
2023-01-13T22:41:57.361Z,100207.69
2023-01-13T22:43:59.367Z,100210.63
2023-01-13T22:46:08.350Z,100209.53
2023-01-13T22:48:18.190Z,100206.03
2023-01-13T22:50:23.000Z,100209.63
2023-01-13T22:52:27.348Z,100204.41
2023-01-13T22:54:29.375Z,100207.06
2023-01-13T22:56:40.646Z,100206.84
2023-01-13T22:58:44.236Z,100211.31
2023-01-13T23:00:47.079Z,100208.78
2023-01-13T23:02:49.047Z,100221.53
2023-01-13T23:04:51.043Z,100223.25
2023-01-13T23:06:56.207Z,100219.72
2023-01-13T23:08:58.625Z,100216.97
2023-01-13T23:11:14.403Z,100217.13
2023-01-13T23:13:16.450Z,100224.63
2023-01-13T23:15:20.650Z,100225.75
2023-01-13T23:17:22.664Z,100226.47
2023-01-13T23:19:35.375Z,100229.94
2023-01-13T23:21:46.459Z,100230.59
2023-01-13T23:23:58.345Z,100227.34
2023-01-13T23:26:01.004Z,100223.78
2023-01-13T23:28:05.049Z,100229.06
2023-01-13T23:30:09.261Z,100235.66
2023-01-13T23:32:23.680Z,100231.44
2023-01-13T23:34:25.620Z,100233.31
2023-01-13T23:36:29.140Z,100230.75
2023-01-13T23:38:38.178Z,100233.69
2023-01-13T23:40:51.113Z,100235.41
2023-01-13T23:42:53.093Z,100239.00
2023-01-13T23:44:55.700Z,100233.69
2023-01-13T23:47:22.082Z,100239.69
2023-01-13T23:49:38.345Z,100238.66
2023-01-13T23:51:40.263Z,100236.31
2023-01-13T23:53:47.236Z,100246.47
2023-01-13T23:55:56.131Z,100233.38
2023-01-13T23:58:00.109Z,100244.16
